sensor_id;sensor_type;location;lat;lon;timestamp;temperature;humidity
45207;DHT22;30950;53.086;21.576;2023-06-22T00:01:20;22.10;99.90
45207;DHT22;30950;53.086;21.576;2023-06-22T00:03:49;22.10;99.90
45207;DHT22;30950;53.086;21.576;2023-06-22T00:06:17;22.10;99.90
45207;DHT22;30950;53.086;21.576;2023-06-22T00:08:44;22.10;99.90
45207;DHT22;30950;53.086;21.576;2023-06-22T00:11:12;22.00;99.90
45207;DHT22;30950;53.086;21.576;2023-06-22T00:13:39;22.00;99.90
45207;DHT22;30950;53.086;21.576;2023-06-22T00:16:07;21.90;99.90
45207;DHT22;30950;53.086;21.576;2023-06-22T00:18:34;21.90;99.90
45207;DHT22;30950;53.086;21.576;2023-06-22T00:21:02;21.80;99.90
45207;DHT22;30950;53.086;21.576;2023-06-22T00:23:29;21.80;99.90
45207;DHT22;30950;53.086;21.576;2023-06-22T00:26:01;21.80;99.90
45207;DHT22;30950;53.086;21.576;2023-06-22T00:28:28;21.70;99.90
45207;DHT22;30950;53.086;21.576;2023-06-22T00:30:56;21.70;99.90
45207;DHT22;30950;53.086;21.576;2023-06-22T00:33:26;21.70;99.90
45207;DHT22;30950;53.086;21.576;2023-06-22T00:35:55;21.60;99.90
45207;DHT22;30950;53.086;21.576;2023-06-22T00:38:22;21.60;99.90
45207;DHT22;30950;53.086;21.576;2023-06-22T00:40:50;21.50;99.90
45207;DHT22;30950;53.086;21.576;2023-06-22T00:43:17;21.50;99.90
45207;DHT22;30950;53.086;21.576;2023-06-22T00:45:45;21.40;99.90
45207;DHT22;30950;53.086;21.576;2023-06-22T00:48:13;21.40;99.90
45207;DHT22;30950;53.086;21.576;2023-06-22T00:50:41;21.40;99.90
45207;DHT22;30950;53.086;21.576;2023-06-22T00:53:09;21.40;99.90
45207;DHT22;30950;53.086;21.576;2023-06-22T00:55:42;21.30;99.90
45207;DHT22;30950;53.086;21.576;2023-06-22T00:58:14;21.30;99.90
45207;DHT22;30950;53.086;21.576;2023-06-22T01:00:42;21.20;99.90
45207;DHT22;30950;53.086;21.576;2023-06-22T01:03:09;21.20;99.90
45207;DHT22;30950;53.086;21.576;2023-06-22T01:05:39;21.20;99.90
45207;DHT22;30950;53.086;21.576;2023-06-22T01:08:22;21.10;99.90
45207;DHT22;30950;53.086;21.576;2023-06-22T01:10:55;21.10;99.90
45207;DHT22;30950;53.086;21.576;2023-06-22T01:13:28;21.10;99.90
45207;DHT22;30950;53.086;21.576;2023-06-22T01:16:30;21.00;99.90
45207;DHT22;30950;53.086;21.576;2023-06-22T01:19:06;21.00;99.90
45207;DHT22;30950;53.086;21.576;2023-06-22T01:21:37;21.00;99.90
45207;DHT22;30950;53.086;21.576;2023-06-22T01:24:22;20.90;99.90
45207;DHT22;30950;53.086;21.576;2023-06-22T01:27:22;20.90;99.90
45207;DHT22;30950;53.086;21.576;2023-06-22T01:29:56;20.90;99.90
45207;DHT22;30950;53.086;21.576;2023-06-22T01:32:33;20.80;99.90
45207;DHT22;30950;53.086;21.576;2023-06-22T01:35:04;20.80;99.90
45207;DHT22;30950;53.086;21.576;2023-06-22T01:37:33;20.80;99.90
45207;DHT22;30950;53.086;21.576;2023-06-22T01:40:02;20.80;99.90
45207;DHT22;30950;53.086;21.576;2023-06-22T01:42:32;20.80;99.90
45207;DHT22;30950;53.086;21.576;2023-06-22T01:45:00;20.70;99.90
45207;DHT22;30950;53.086;21.576;2023-06-22T01:47:28;20.70;99.90
45207;DHT22;30950;53.086;21.576;2023-06-22T01:49:56;20.70;99.90
45207;DHT22;30950;53.086;21.576;2023-06-22T01:52:24;20.70;99.90
45207;DHT22;30950;53.086;21.576;2023-06-22T01:54:51;20.70;99.90
45207;DHT22;30950;53.086;21.576;2023-06-22T01:57:19;20.70;99.90
45207;DHT22;30950;53.086;21.576;2023-06-22T02:00:05;20.60;99.90
45207;DHT22;30950;53.086;21.576;2023-06-22T02:03:08;20.60;99.90
45207;DHT22;30950;53.086;21.576;2023-06-22T02:05:54;20.60;99.90
45207;DHT22;30950;53.086;21.576;2023-06-22T02:08:27;20.60;99.90
45207;DHT22;30950;53.086;21.576;2023-06-22T02:10:59;20.60;99.90
45207;DHT22;30950;53.086;21.576;2023-06-22T02:13:28;20.50;99.90
45207;DHT22;30950;53.086;21.576;2023-06-22T02:15:56;20.50;99.90
45207;DHT22;30950;53.086;21.576;2023-06-22T02:18:23;20.50;99.90
45207;DHT22;30950;53.086;21.576;2023-06-22T02:20:51;20.40;99.90
45207;DHT22;30950;53.086;21.576;2023-06-22T02:23:18;20.40;99.90
45207;DHT22;30950;53.086;21.576;2023-06-22T02:25:46;20.40;99.90
45207;DHT22;30950;53.086;21.576;2023-06-22T02:28:13;20.40;99.90
45207;DHT22;30950;53.086;21.576;2023-06-22T02:30:41;20.40;99.90
45207;DHT22;30950;53.086;21.576;2023-06-22T02:33:08;20.40;99.90
45207;DHT22;30950;53.086;21.576;2023-06-22T02:35:35;20.40;99.90
45207;DHT22;30950;53.086;21.576;2023-06-22T02:38:04;20.40;99.90
45207;DHT22;30950;53.086;21.576;2023-06-22T02:40:31;20.40;99.90
45207;DHT22;30950;53.086;21.576;2023-06-22T02:42:59;20.40;99.90
45207;DHT22;30950;53.086;21.576;2023-06-22T02:45:29;20.40;99.90
45207;DHT22;30950;53.086;21.576;2023-06-22T02:47:57;20.40;99.90
45207;DHT22;30950;53.086;21.576;2023-06-22T02:50:25;20.40;99.90
45207;DHT22;30950;53.086;21.576;2023-06-22T02:52:54;20.40;99.90
45207;DHT22;30950;53.086;21.576;2023-06-22T02:55:21;20.40;99.90
45207;DHT22;30950;53.086;21.576;2023-06-22T02:57:54;20.40;99.90
45207;DHT22;30950;53.086;21.576;2023-06-22T03:00:22;20.40;99.90
45207;DHT22;30950;53.086;21.576;2023-06-22T03:02:49;20.40;99.90
45207;DHT22;30950;53.086;21.576;2023-06-22T03:05:18;20.40;99.90
45207;DHT22;30950;53.086;21.576;2023-06-22T03:07:47;20.40;99.90
45207;DHT22;30950;53.086;21.576;2023-06-22T03:10:15;20.40;99.90
45207;DHT22;30950;53.086;21.576;2023-06-22T03:12:43;20.40;99.90
45207;DHT22;30950;53.086;21.576;2023-06-22T03:15:12;20.40;99.90
45207;DHT22;30950;53.086;21.576;2023-06-22T03:17:40;20.40;99.90
45207;DHT22;30950;53.086;21.576;2023-06-22T03:20:09;20.40;99.90
45207;DHT22;30950;53.086;21.576;2023-06-22T03:22:39;20.40;99.90
45207;DHT22;30950;53.086;21.576;2023-06-22T03:25:07;20.40;99.90
45207;DHT22;30950;53.086;21.576;2023-06-22T03:27:43;20.40;99.90
45207;DHT22;30950;53.086;21.576;2023-06-22T03:30:15;20.50;99.90
45207;DHT22;30950;53.086;21.576;2023-06-22T03:32:42;20.50;99.90
45207;DHT22;30950;53.086;21.576;2023-06-22T03:35:10;20.50;99.90
45207;DHT22;30950;53.086;21.576;2023-06-22T03:37:40;20.50;99.90
45207;DHT22;30950;53.086;21.576;2023-06-22T03:40:08;20.50;99.90
45207;DHT22;30950;53.086;21.576;2023-06-22T03:42:36;20.50;99.90
45207;DHT22;30950;53.086;21.576;2023-06-22T03:45:04;20.50;99.90
45207;DHT22;30950;53.086;21.576;2023-06-22T03:47:32;20.50;99.90
45207;DHT22;30950;53.086;21.576;2023-06-22T03:50:00;20.40;99.90
45207;DHT22;30950;53.086;21.576;2023-06-22T03:52:28;20.40;99.90
45207;DHT22;30950;53.086;21.576;2023-06-22T03:54:55;20.40;99.90
45207;DHT22;30950;53.086;21.576;2023-06-22T03:57:23;20.40;99.90
45207;DHT22;30950;53.086;21.576;2023-06-22T03:59:50;20.30;99.90
45207;DHT22;30950;53.086;21.576;2023-06-22T04:02:17;20.30;99.90
45207;DHT22;30950;53.086;21.576;2023-06-22T04:04:45;20.30;99.90
45207;DHT22;30950;53.086;21.576;2023-06-22T04:07:12;20.30;99.90
45207;DHT22;30950;53.086;21.576;2023-06-22T04:09:40;20.30;99.90
45207;DHT22;30950;53.086;21.576;2023-06-22T04:12:07;20.20;99.90
45207;DHT22;30950;53.086;21.576;2023-06-22T04:14:35;20.30;99.90
45207;DHT22;30950;53.086;21.576;2023-06-22T04:17:02;20.30;99.90
45207;DHT22;30950;53.086;21.576;2023-06-22T04:19:30;20.30;99.90
45207;DHT22;30950;53.086;21.576;2023-06-22T04:21:57;20.30;99.90
45207;DHT22;30950;53.086;21.576;2023-06-22T04:24:25;20.40;99.90
45207;DHT22;30950;53.086;21.576;2023-06-22T04:26:52;20.40;99.90
45207;DHT22;30950;53.086;21.576;2023-06-22T04:29:22;20.40;99.90
45207;DHT22;30950;53.086;21.576;2023-06-22T04:31:57;20.50;99.90
45207;DHT22;30950;53.086;21.576;2023-06-22T04:34:30;20.50;99.90
45207;DHT22;30950;53.086;21.576;2023-06-22T04:36:58;20.50;99.90
45207;DHT22;30950;53.086;21.576;2023-06-22T04:39:25;20.60;99.90
45207;DHT22;30950;53.086;21.576;2023-06-22T04:41:54;20.60;99.90
45207;DHT22;30950;53.086;21.576;2023-06-22T04:44:27;20.60;99.90
45207;DHT22;30950;53.086;21.576;2023-06-22T04:46:59;20.70;99.90
45207;DHT22;30950;53.086;21.576;2023-06-22T04:49:36;20.70;99.90
45207;DHT22;30950;53.086;21.576;2023-06-22T04:52:07;20.70;99.90
45207;DHT22;30950;53.086;21.576;2023-06-22T04:54:36;20.70;99.90
45207;DHT22;30950;53.086;21.576;2023-06-22T04:57:06;20.80;99.90
45207;DHT22;30950;53.086;21.576;2023-06-22T04:59:38;20.90;99.90
45207;DHT22;30950;53.086;21.576;2023-06-22T05:02:06;20.90;99.90
45207;DHT22;30950;53.086;21.576;2023-06-22T05:04:34;20.90;99.90
45207;DHT22;30950;53.086;21.576;2023-06-22T05:07:06;21.00;99.90
45207;DHT22;30950;53.086;21.576;2023-06-22T05:09:34;21.00;99.90
45207;DHT22;30950;53.086;21.576;2023-06-22T05:12:02;21.10;99.90
45207;DHT22;30950;53.086;21.576;2023-06-22T05:14:30;21.20;99.90
45207;DHT22;30950;53.086;21.576;2023-06-22T05:16:57;21.20;99.90
45207;DHT22;30950;53.086;21.576;2023-06-22T05:19:31;21.30;99.90
45207;DHT22;30950;53.086;21.576;2023-06-22T05:22:01;21.40;99.90
45207;DHT22;30950;53.086;21.576;2023-06-22T05:24:29;21.40;99.90
45207;DHT22;30950;53.086;21.576;2023-06-22T05:26:56;21.50;99.90
45207;DHT22;30950;53.086;21.576;2023-06-22T05:29:23;21.60;99.90
45207;DHT22;30950;53.086;21.576;2023-06-22T05:31:51;21.70;99.90
45207;DHT22;30950;53.086;21.576;2023-06-22T05:34:18;21.70;99.90
45207;DHT22;30950;53.086;21.576;2023-06-22T05:36:46;21.90;99.90
45207;DHT22;30950;53.086;21.576;2023-06-22T05:39:14;21.90;99.90
45207;DHT22;30950;53.086;21.576;2023-06-22T05:41:44;22.00;99.90
45207;DHT22;30950;53.086;21.576;2023-06-22T05:44:12;22.20;99.90
45207;DHT22;30950;53.086;21.576;2023-06-22T05:46:43;22.20;99.90
45207;DHT22;30950;53.086;21.576;2023-06-22T05:49:15;22.30;99.90
45207;DHT22;30950;53.086;21.576;2023-06-22T05:51:43;22.50;99.90
45207;DHT22;30950;53.086;21.576;2023-06-22T05:54:11;22.60;99.90
45207;DHT22;30950;53.086;21.576;2023-06-22T05:56:40;22.60;99.90
45207;DHT22;30950;53.086;21.576;2023-06-22T05:59:08;22.80;99.90
45207;DHT22;30950;53.086;21.576;2023-06-22T06:01:35;22.90;99.90
45207;DHT22;30950;53.086;21.576;2023-06-22T06:04:03;23.00;99.90
45207;DHT22;30950;53.086;21.576;2023-06-22T06:06:31;23.10;99.90
45207;DHT22;30950;53.086;21.576;2023-06-22T06:08:59;23.10;99.90
45207;DHT22;30950;53.086;21.576;2023-06-22T06:11:27;23.20;99.90
45207;DHT22;30950;53.086;21.576;2023-06-22T06:13:54;23.30;99.90
45207;DHT22;30950;53.086;21.576;2023-06-22T06:16:22;23.30;99.90
45207;DHT22;30950;53.086;21.576;2023-06-22T06:18:50;23.30;99.90
45207;DHT22;30950;53.086;21.576;2023-06-22T06:21:18;23.40;99.90
45207;DHT22;30950;53.086;21.576;2023-06-22T06:23:45;23.40;99.90
45207;DHT22;30950;53.086;21.576;2023-06-22T06:26:12;23.40;99.90
45207;DHT22;30950;53.086;21.576;2023-06-22T06:28:45;23.40;99.90
45207;DHT22;30950;53.086;21.576;2023-06-22T06:31:13;23.50;99.90
45207;DHT22;30950;53.086;21.576;2023-06-22T06:33:44;23.50;99.90
45207;DHT22;30950;53.086;21.576;2023-06-22T06:36:11;23.60;99.90
45207;DHT22;30950;53.086;21.576;2023-06-22T06:38:39;23.60;99.90
45207;DHT22;30950;53.086;21.576;2023-06-22T06:41:06;23.60;99.90
45207;DHT22;30950;53.086;21.576;2023-06-22T06:43:33;23.60;99.90
45207;DHT22;30950;53.086;21.576;2023-06-22T06:46:01;23.60;99.90
45207;DHT22;30950;53.086;21.576;2023-06-22T06:48:30;23.60;99.90
45207;DHT22;30950;53.086;21.576;2023-06-22T06:50:58;23.50;99.90
45207;DHT22;30950;53.086;21.576;2023-06-22T06:53:25;23.50;99.90
45207;DHT22;30950;53.086;21.576;2023-06-22T06:55:52;23.50;99.90
45207;DHT22;30950;53.086;21.576;2023-06-22T06:58:20;23.60;99.90
45207;DHT22;30950;53.086;21.576;2023-06-22T07:00:47;23.60;99.90
45207;DHT22;30950;53.086;21.576;2023-06-22T07:03:15;23.60;99.90
45207;DHT22;30950;53.086;21.576;2023-06-22T07:05:42;23.60;99.90
45207;DHT22;30950;53.086;21.576;2023-06-22T07:08:09;23.60;99.90
45207;DHT22;30950;53.086;21.576;2023-06-22T07:10:37;23.50;99.90
45207;DHT22;30950;53.086;21.576;2023-06-22T07:13:05;23.40;99.90
45207;DHT22;30950;53.086;21.576;2023-06-22T07:15:32;23.50;99.90
45207;DHT22;30950;53.086;21.576;2023-06-22T07:17:59;23.50;99.90
45207;DHT22;30950;53.086;21.576;2023-06-22T07:20:27;23.60;99.90
45207;DHT22;30950;53.086;21.576;2023-06-22T07:22:55;23.60;99.90
45207;DHT22;30950;53.086;21.576;2023-06-22T07:25:22;23.70;99.90
45207;DHT22;30950;53.086;21.576;2023-06-22T07:28:08;23.80;99.90
45207;DHT22;30950;53.086;21.576;2023-06-22T07:30:36;23.90;99.90
45207;DHT22;30950;53.086;21.576;2023-06-22T07:33:03;24.00;99.90
45207;DHT22;30950;53.086;21.576;2023-06-22T07:35:34;24.00;99.90
45207;DHT22;30950;53.086;21.576;2023-06-22T07:38:02;24.10;99.90
45207;DHT22;30950;53.086;21.576;2023-06-22T07:40:32;24.20;99.90
45207;DHT22;30950;53.086;21.576;2023-06-22T07:43:01;24.20;99.90
45207;DHT22;30950;53.086;21.576;2023-06-22T07:45:28;24.20;99.90
45207;DHT22;30950;53.086;21.576;2023-06-22T07:47:56;24.20;99.90
45207;DHT22;30950;53.086;21.576;2023-06-22T07:50:24;24.20;99.90
45207;DHT22;30950;53.086;21.576;2023-06-22T07:52:51;24.30;99.90
45207;DHT22;30950;53.086;21.576;2023-06-22T07:55:20;24.30;99.90
45207;DHT22;30950;53.086;21.576;2023-06-22T07:57:49;24.40;99.90
45207;DHT22;30950;53.086;21.576;2023-06-22T08:00:19;24.50;99.90
45207;DHT22;30950;53.086;21.576;2023-06-22T08:02:47;24.60;99.90
45207;DHT22;30950;53.086;21.576;2023-06-22T08:05:15;24.70;99.90
45207;DHT22;30950;53.086;21.576;2023-06-22T08:07:49;24.80;99.90
45207;DHT22;30950;53.086;21.576;2023-06-22T08:10:17;24.90;99.90
45207;DHT22;30950;53.086;21.576;2023-06-22T08:12:44;24.90;99.90
45207;DHT22;30950;53.086;21.576;2023-06-22T08:15:12;24.90;99.90
45207;DHT22;30950;53.086;21.576;2023-06-22T08:17:39;24.90;99.90
45207;DHT22;30950;53.086;21.576;2023-06-22T08:20:08;24.80;99.90
45207;DHT22;30950;53.086;21.576;2023-06-22T08:22:43;24.90;99.90
45207;DHT22;30950;53.086;21.576;2023-06-22T08:25:11;24.90;99.90
45207;DHT22;30950;53.086;21.576;2023-06-22T08:27:38;25.00;99.90
45207;DHT22;30950;53.086;21.576;2023-06-22T08:30:07;25.20;99.90
45207;DHT22;30950;53.086;21.576;2023-06-22T08:32:38;25.30;99.90
45207;DHT22;30950;53.086;21.576;2023-06-22T08:35:06;25.30;99.90
45207;DHT22;30950;53.086;21.576;2023-06-22T08:37:35;25.50;99.90
45207;DHT22;30950;53.086;21.576;2023-06-22T08:40:05;25.60;99.90
45207;DHT22;30950;53.086;21.576;2023-06-22T08:42:36;25.60;99.90
45207;DHT22;30950;53.086;21.576;2023-06-22T08:45:04;25.50;99.90
45207;DHT22;30950;53.086;21.576;2023-06-22T08:47:32;25.40;99.90
45207;DHT22;30950;53.086;21.576;2023-06-22T08:49:59;25.30;99.90
45207;DHT22;30950;53.086;21.576;2023-06-22T08:52:29;25.40;99.90
45207;DHT22;30950;53.086;21.576;2023-06-22T08:54:56;25.50;99.90
45207;DHT22;30950;53.086;21.576;2023-06-22T08:57:29;25.60;99.90
45207;DHT22;30950;53.086;21.576;2023-06-22T08:59:57;25.60;99.90
45207;DHT22;30950;53.086;21.576;2023-06-22T09:02:28;25.70;99.90
45207;DHT22;30950;53.086;21.576;2023-06-22T09:04:59;25.60;99.90
45207;DHT22;30950;53.086;21.576;2023-06-22T09:07:27;25.70;99.90
45207;DHT22;30950;53.086;21.576;2023-06-22T09:09:55;25.80;99.90
45207;DHT22;30950;53.086;21.576;2023-06-22T09:12:23;25.80;99.90
45207;DHT22;30950;53.086;21.576;2023-06-22T09:14:54;25.90;99.90
45207;DHT22;30950;53.086;21.576;2023-06-22T09:17:22;26.00;99.90
45207;DHT22;30950;53.086;21.576;2023-06-22T09:19:49;26.10;99.90
45207;DHT22;30950;53.086;21.576;2023-06-22T09:22:17;26.20;99.00
45207;DHT22;30950;53.086;21.576;2023-06-22T09:24:44;26.30;98.00
45207;DHT22;30950;53.086;21.576;2023-06-22T09:27:11;26.40;97.80
45207;DHT22;30950;53.086;21.576;2023-06-22T09:29:39;26.60;97.00
45207;DHT22;30950;53.086;21.576;2023-06-22T09:32:07;26.80;96.50
45207;DHT22;30950;53.086;21.576;2023-06-22T09:34:34;26.80;95.70
45207;DHT22;30950;53.086;21.576;2023-06-22T09:37:02;26.80;96.00
45207;DHT22;30950;53.086;21.576;2023-06-22T09:39:29;26.90;95.80
45207;DHT22;30950;53.086;21.576;2023-06-22T09:41:59;26.80;95.30
45207;DHT22;30950;53.086;21.576;2023-06-22T09:44:27;26.80;95.70
45207;DHT22;30950;53.086;21.576;2023-06-22T09:46:54;26.70;95.30
45207;DHT22;30950;53.086;21.576;2023-06-22T09:49:22;26.80;95.80
45207;DHT22;30950;53.086;21.576;2023-06-22T09:52:09;26.80;95.70
45207;DHT22;30950;53.086;21.576;2023-06-22T09:54:38;26.80;95.60
45207;DHT22;30950;53.086;21.576;2023-06-22T09:57:06;26.90;96.10
45207;DHT22;30950;53.086;21.576;2023-06-22T09:59:33;26.90;96.40
45207;DHT22;30950;53.086;21.576;2023-06-22T10:02:01;27.00;96.40
45207;DHT22;30950;53.086;21.576;2023-06-22T10:04:28;27.00;95.50
45207;DHT22;30950;53.086;21.576;2023-06-22T10:06:56;27.00;95.90
45207;DHT22;30950;53.086;21.576;2023-06-22T10:09:24;27.10;96.20
45207;DHT22;30950;53.086;21.576;2023-06-22T10:11:51;27.10;96.00
45207;DHT22;30950;53.086;21.576;2023-06-22T10:14:18;27.00;95.50
45207;DHT22;30950;53.086;21.576;2023-06-22T10:16:46;27.00;95.30
45207;DHT22;30950;53.086;21.576;2023-06-22T10:19:13;27.00;95.20
45207;DHT22;30950;53.086;21.576;2023-06-22T10:21:41;26.90;95.70
45207;DHT22;30950;53.086;21.576;2023-06-22T10:24:08;26.80;96.00
45207;DHT22;30950;53.086;21.576;2023-06-22T10:26:36;26.80;96.50
45207;DHT22;30950;53.086;21.576;2023-06-22T10:29:04;26.80;97.10
45207;DHT22;30950;53.086;21.576;2023-06-22T10:31:34;27.00;97.30
45207;DHT22;30950;53.086;21.576;2023-06-22T10:34:02;27.40;96.80
45207;DHT22;30950;53.086;21.576;2023-06-22T10:36:29;27.80;96.20
45207;DHT22;30950;53.086;21.576;2023-06-22T10:38:57;27.90;93.70
45207;DHT22;30950;53.086;21.576;2023-06-22T10:41:26;27.90;92.60
45207;DHT22;30950;53.086;21.576;2023-06-22T10:43:57;27.80;92.50
45207;DHT22;30950;53.086;21.576;2023-06-22T10:46:25;27.80;91.90
45207;DHT22;30950;53.086;21.576;2023-06-22T10:48:53;27.80;91.50
45207;DHT22;30950;53.086;21.576;2023-06-22T10:51:22;27.70;91.70
45207;DHT22;30950;53.086;21.576;2023-06-22T10:53:49;27.70;91.70
45207;DHT22;30950;53.086;21.576;2023-06-22T10:56:18;27.70;90.90
45207;DHT22;30950;53.086;21.576;2023-06-22T10:58:48;27.60;91.20
45207;DHT22;30950;53.086;21.576;2023-06-22T11:01:16;27.40;90.60
45207;DHT22;30950;53.086;21.576;2023-06-22T11:04:01;27.30;90.30
45207;DHT22;30950;53.086;21.576;2023-06-22T11:06:29;27.00;90.20
45207;DHT22;30950;53.086;21.576;2023-06-22T11:08:58;26.90;90.80
45207;DHT22;30950;53.086;21.576;2023-06-22T11:11:43;26.80;90.70
45207;DHT22;30950;53.086;21.576;2023-06-22T11:14:11;26.70;91.10
45207;DHT22;30950;53.086;21.576;2023-06-22T11:16:38;26.80;91.30
45207;DHT22;30950;53.086;21.576;2023-06-22T11:19:06;26.80;91.10
45207;DHT22;30950;53.086;21.576;2023-06-22T11:21:33;26.80;91.00
45207;DHT22;30950;53.086;21.576;2023-06-22T11:24:01;26.80;91.00
45207;DHT22;30950;53.086;21.576;2023-06-22T11:26:28;27.00;90.50
45207;DHT22;30950;53.086;21.576;2023-06-22T11:28:55;27.10;90.00
45207;DHT22;30950;53.086;21.576;2023-06-22T11:31:23;27.20;88.40
45207;DHT22;30950;53.086;21.576;2023-06-22T11:33:53;27.30;86.30
45207;DHT22;30950;53.086;21.576;2023-06-22T11:36:21;27.20;84.90
45207;DHT22;30950;53.086;21.576;2023-06-22T11:38:48;27.30;85.70
45207;DHT22;30950;53.086;21.576;2023-06-22T11:41:16;27.30;84.20
45207;DHT22;30950;53.086;21.576;2023-06-22T11:43:43;27.30;83.20
45207;DHT22;30950;53.086;21.576;2023-06-22T11:46:11;27.30;83.60
45207;DHT22;30950;53.086;21.576;2023-06-22T11:48:38;27.30;81.80
45207;DHT22;30950;53.086;21.576;2023-06-22T11:51:06;27.40;81.80
45207;DHT22;30950;53.086;21.576;2023-06-22T11:53:35;27.40;80.70
45207;DHT22;30950;53.086;21.576;2023-06-22T11:56:02;27.40;81.10
45207;DHT22;30950;53.086;21.576;2023-06-22T11:58:30;27.50;81.50
45207;DHT22;30950;53.086;21.576;2023-06-22T12:00:57;27.70;81.70
45207;DHT22;30950;53.086;21.576;2023-06-22T12:03:24;27.80;80.50
45207;DHT22;30950;53.086;21.576;2023-06-22T12:05:52;27.80;78.40
45207;DHT22;30950;53.086;21.576;2023-06-22T12:08:21;27.90;77.50
45207;DHT22;30950;53.086;21.576;2023-06-22T12:10:49;27.90;76.10
45207;DHT22;30950;53.086;21.576;2023-06-22T12:13:17;28.00;76.10
45207;DHT22;30950;53.086;21.576;2023-06-22T12:15:44;28.00;75.10
45207;DHT22;30950;53.086;21.576;2023-06-22T12:18:12;28.10;73.90
45207;DHT22;30950;53.086;21.576;2023-06-22T12:20:41;28.30;74.40
45207;DHT22;30950;53.086;21.576;2023-06-22T12:23:09;28.50;74.10
45207;DHT22;30950;53.086;21.576;2023-06-22T12:25:36;28.60;73.30
45207;DHT22;30950;53.086;21.576;2023-06-22T12:28:04;28.70;72.70
45207;DHT22;30950;53.086;21.576;2023-06-22T12:30:33;28.90;71.50
45207;DHT22;30950;53.086;21.576;2023-06-22T12:33:00;29.10;71.70
45207;DHT22;30950;53.086;21.576;2023-06-22T12:35:28;29.40;70.70
45207;DHT22;30950;53.086;21.576;2023-06-22T12:37:55;29.60;70.60
45207;DHT22;30950;53.086;21.576;2023-06-22T12:40:23;29.70;69.80
45207;DHT22;30950;53.086;21.576;2023-06-22T12:42:50;30.00;69.80
45207;DHT22;30950;53.086;21.576;2023-06-22T12:45:18;30.30;68.40
45207;DHT22;30950;53.086;21.576;2023-06-22T12:47:45;30.60;66.20
45207;DHT22;30950;53.086;21.576;2023-06-22T12:50:13;30.90;65.50
45207;DHT22;30950;53.086;21.576;2023-06-22T12:52:40;31.30;65.20
45207;DHT22;30950;53.086;21.576;2023-06-22T12:55:08;31.40;62.10
45207;DHT22;30950;53.086;21.576;2023-06-22T12:57:35;31.40;61.40
45207;DHT22;30950;53.086;21.576;2023-06-22T13:00:03;31.40;59.80
45207;DHT22;30950;53.086;21.576;2023-06-22T13:02:32;31.30;60.60
45207;DHT22;30950;53.086;21.576;2023-06-22T13:05:00;31.60;61.20
45207;DHT22;30950;53.086;21.576;2023-06-22T13:07:27;31.90;60.10
45207;DHT22;30950;53.086;21.576;2023-06-22T13:09:55;32.30;60.20
45207;DHT22;30950;53.086;21.576;2023-06-22T13:12:22;32.60;58.50
45207;DHT22;30950;53.086;21.576;2023-06-22T13:14:49;32.60;58.00
45207;DHT22;30950;53.086;21.576;2023-06-22T13:17:17;32.60;58.50
45207;DHT22;30950;53.086;21.576;2023-06-22T13:19:44;32.60;58.20
45207;DHT22;30950;53.086;21.576;2023-06-22T13:22:31;32.40;56.90
45207;DHT22;30950;53.086;21.576;2023-06-22T13:24:59;32.30;57.00
45207;DHT22;30950;53.086;21.576;2023-06-22T13:27:27;32.00;56.50
45207;DHT22;30950;53.086;21.576;2023-06-22T13:29:54;31.70;56.60
45207;DHT22;30950;53.086;21.576;2023-06-22T13:32:22;31.70;57.30
45207;DHT22;30950;53.086;21.576;2023-06-22T13:34:50;31.80;56.80
45207;DHT22;30950;53.086;21.576;2023-06-22T13:37:18;32.00;56.20
45207;DHT22;30950;53.086;21.576;2023-06-22T13:39:45;32.20;55.20
45207;DHT22;30950;53.086;21.576;2023-06-22T13:42:13;32.30;54.80
45207;DHT22;30950;53.086;21.576;2023-06-22T13:44:40;32.20;54.70
45207;DHT22;30950;53.086;21.576;2023-06-22T13:47:08;32.20;55.10
45207;DHT22;30950;53.086;21.576;2023-06-22T13:49:35;32.00;54.80
45207;DHT22;30950;53.086;21.576;2023-06-22T13:52:03;31.90;55.20
45207;DHT22;30950;53.086;21.576;2023-06-22T13:54:31;31.90;56.50
45207;DHT22;30950;53.086;21.576;2023-06-22T13:57:02;32.00;56.60
45207;DHT22;30950;53.086;21.576;2023-06-22T13:59:29;32.10;55.90
45207;DHT22;30950;53.086;21.576;2023-06-22T14:01:57;32.20;55.70
45207;DHT22;30950;53.086;21.576;2023-06-22T14:04:24;32.00;54.80
45207;DHT22;30950;53.086;21.576;2023-06-22T14:06:52;31.80;55.10
45207;DHT22;30950;53.086;21.576;2023-06-22T14:09:23;31.50;55.70
45207;DHT22;30950;53.086;21.576;2023-06-22T14:11:51;31.20;56.00
45207;DHT22;30950;53.086;21.576;2023-06-22T14:14:18;30.90;56.10
45207;DHT22;30950;53.086;21.576;2023-06-22T14:16:46;30.50;56.90
45207;DHT22;30950;53.086;21.576;2023-06-22T14:19:16;30.40;57.90
45207;DHT22;30950;53.086;21.576;2023-06-22T14:21:43;30.60;57.80
45207;DHT22;30950;53.086;21.576;2023-06-22T14:24:11;30.80;57.80
45207;DHT22;30950;53.086;21.576;2023-06-22T14:26:38;30.90;58.10
45207;DHT22;30950;53.086;21.576;2023-06-22T14:29:06;31.20;57.30
45207;DHT22;30950;53.086;21.576;2023-06-22T14:31:33;31.30;56.90
45207;DHT22;30950;53.086;21.576;2023-06-22T14:34:02;31.20;56.60
45207;DHT22;30950;53.086;21.576;2023-06-22T14:36:30;31.10;57.10
45207;DHT22;30950;53.086;21.576;2023-06-22T14:38:57;31.20;56.00
45207;DHT22;30950;53.086;21.576;2023-06-22T14:41:25;31.30;56.10
45207;DHT22;30950;53.086;21.576;2023-06-22T14:43:52;31.50;56.20
45207;DHT22;30950;53.086;21.576;2023-06-22T14:46:20;31.80;56.10
45207;DHT22;30950;53.086;21.576;2023-06-22T14:48:48;32.10;55.20
45207;DHT22;30950;53.086;21.576;2023-06-22T14:51:15;32.30;55.50
45207;DHT22;30950;53.086;21.576;2023-06-22T14:53:45;32.60;55.00
45207;DHT22;30950;53.086;21.576;2023-06-22T14:56:13;32.80;54.00
45207;DHT22;30950;53.086;21.576;2023-06-22T14:58:43;32.80;53.00
45207;DHT22;30950;53.086;21.576;2023-06-22T15:01:14;32.80;52.50
45207;DHT22;30950;53.086;21.576;2023-06-22T15:03:41;32.60;52.60
45207;DHT22;30950;53.086;21.576;2023-06-22T15:06:09;32.60;51.10
45207;DHT22;30950;53.086;21.576;2023-06-22T15:08:38;32.60;52.00
45207;DHT22;30950;53.086;21.576;2023-06-22T15:11:06;32.60;51.70
45207;DHT22;30950;53.086;21.576;2023-06-22T15:13:34;32.60;51.60
45207;DHT22;30950;53.086;21.576;2023-06-22T15:16:02;32.60;51.70
45207;DHT22;30950;53.086;21.576;2023-06-22T15:18:31;32.60;51.50
45207;DHT22;30950;53.086;21.576;2023-06-22T15:21:01;32.70;51.60
45207;DHT22;30950;53.086;21.576;2023-06-22T15:23:29;32.70;51.40
45207;DHT22;30950;53.086;21.576;2023-06-22T15:25:58;32.70;51.40